createdAt,value
2019-03-09T00:00:38.674Z,997.7
2019-03-09T00:01:40.072Z,997.6
2019-03-09T00:02:41.470Z,997.6
2019-03-09T00:03:42.833Z,997.7
2019-03-09T00:04:44.226Z,997.6
2019-03-09T00:05:45.625Z,997.7
2019-03-09T00:06:47.020Z,997.6
2019-03-09T00:07:48.413Z,997.5
2019-03-09T00:08:49.808Z,997.6
2019-03-09T00:09:51.198Z,997.5
2019-03-09T00:10:52.589Z,997.4
2019-03-09T00:11:53.982Z,997.4
2019-03-09T00:12:55.379Z,997.4
2019-03-09T00:13:56.748Z,997.4
2019-03-09T00:14:58.131Z,997.4
2019-03-09T00:15:59.534Z,997.4
2019-03-09T00:17:00.924Z,997.4
2019-03-09T00:18:02.332Z,997.4
2019-03-09T00:19:03.721Z,997.4
2019-03-09T00:20:05.112Z,997.4
2019-03-09T00:21:06.528Z,997.3
2019-03-09T00:22:07.923Z,997.3
2019-03-09T00:23:09.318Z,997.3
2019-03-09T00:24:10.680Z,997.3
2019-03-09T00:25:12.080Z,997.3
2019-03-09T00:26:13.473Z,997.3
2019-03-09T00:27:14.864Z,997.4
2019-03-09T00:28:16.259Z,997.3
2019-03-09T00:29:17.652Z,997.3
2019-03-09T00:30:19.046Z,997.2
2019-03-09T00:31:20.438Z,997.3
2019-03-09T00:32:21.832Z,997.2
2019-03-09T00:33:23.223Z,997.2
2019-03-09T00:34:24.617Z,997.1
2019-03-09T00:35:25.975Z,997.2
2019-03-09T00:36:28.179Z,997.1
2019-03-09T00:37:28.734Z,997.2
2019-03-09T00:38:30.126Z,997.1
2019-03-09T00:39:31.526Z,997.1
2019-03-09T00:40:32.913Z,997.2
2019-03-09T00:41:34.304Z,997.2
2019-03-09T00:42:35.700Z,997.2
2019-03-09T00:43:37.098Z,997.1
2019-03-09T00:44:38.491Z,997.2
2019-03-09T00:45:39.847Z,997.2
2019-03-09T00:46:41.308Z,997.1
2019-03-09T00:47:42.709Z,997.2
2019-03-09T00:48:44.116Z,997.1
2019-03-09T00:49:45.514Z,997.2
2019-03-09T00:50:46.912Z,997.2
2019-03-09T00:51:48.323Z,997.2
2019-03-09T00:52:49.712Z,997.1
2019-03-09T00:53:51.107Z,997.2
2019-03-09T00:54:52.532Z,997.1
2019-03-09T00:55:53.890Z,997.2
2019-03-09T00:56:55.283Z,997.1
2019-03-09T00:57:56.686Z,997.1
2019-03-09T00:58:58.079Z,997.0
2019-03-09T00:59:59.475Z,997.1
2019-03-09T01:01:00.871Z,996.9
2019-03-09T01:02:02.267Z,996.9
2019-03-09T01:03:03.670Z,996.9
2019-03-09T01:04:05.057Z,996.9
2019-03-09T01:05:06.452Z,996.8
2019-03-09T01:06:07.849Z,996.8
2019-03-09T01:07:09.242Z,996.8
2019-03-09T01:08:10.659Z,996.7
2019-03-09T01:09:12.077Z,996.7
2019-03-09T01:10:13.456Z,996.7
2019-03-09T01:11:14.851Z,996.7
2019-03-09T01:12:16.256Z,996.7
2019-03-09T01:13:17.645Z,996.8
2019-03-09T01:14:19.040Z,996.6
2019-03-09T01:15:20.432Z,996.6
2019-03-09T01:16:21.823Z,996.6
2019-03-09T01:17:23.215Z,996.5
2019-03-09T01:18:24.610Z,996.5
2019-03-09T01:19:26.006Z,996.5
2019-03-09T01:20:27.405Z,996.4
2019-03-09T01:21:28.796Z,996.5
2019-03-09T01:22:30.193Z,996.4
2019-03-09T01:23:31.608Z,996.4
2019-03-09T01:24:33.010Z,996.4
2019-03-09T01:25:34.405Z,996.3
2019-03-09T01:26:35.797Z,996.3
2019-03-09T01:27:37.199Z,996.3
2019-03-09T01:28:38.590Z,996.2
2019-03-09T01:29:39.980Z,996.3
2019-03-09T01:30:41.373Z,996.4
2019-03-09T01:31:42.768Z,996.3
2019-03-09T01:32:44.161Z,996.3
2019-03-09T01:33:45.568Z,996.3
2019-03-09T01:34:46.954Z,996.3
2019-03-09T01:35:48.360Z,996.3
2019-03-09T01:36:49.810Z,996.3
2019-03-09T01:37:51.202Z,996.2
2019-03-09T01:38:52.594Z,996.1
2019-03-09T01:39:54.006Z,996.2
2019-03-09T01:40:55.384Z,996.1
2019-03-09T01:41:56.779Z,996.1
2019-03-09T01:42:58.173Z,996.2
2019-03-09T01:43:59.571Z,996.2
2019-03-09T01:45:00.964Z,996.2
2019-03-09T01:46:02.353Z,996.1
2019-03-09T01:47:03.751Z,996.0
2019-03-09T01:48:05.148Z,996.1
2019-03-09T01:49:06.552Z,996.0
2019-03-09T01:50:07.943Z,996.1
2019-03-09T01:51:09.335Z,996.1
2019-03-09T01:52:10.729Z,996.0
2019-03-09T01:53:12.121Z,995.9
2019-03-09T01:54:13.516Z,995.9
2019-03-09T01:55:14.913Z,995.9
2019-03-09T01:56:16.311Z,995.9
2019-03-09T01:57:17.707Z,996.0
2019-03-09T01:58:19.104Z,995.9
2019-03-09T01:59:20.499Z,995.9
2019-03-09T02:00:21.897Z,995.9
2019-03-09T02:01:23.293Z,995.9
2019-03-09T02:02:24.688Z,995.9
2019-03-09T02:03:26.101Z,995.8
2019-03-09T02:04:27.507Z,995.9
2019-03-09T02:05:28.902Z,995.8
2019-03-09T02:06:30.294Z,995.9
2019-03-09T02:07:31.687Z,995.9
2019-03-09T02:08:33.088Z,995.8
2019-03-09T02:09:34.478Z,995.9
2019-03-09T02:10:35.874Z,995.8
2019-03-09T02:11:37.264Z,995.8
2019-03-09T02:12:38.661Z,995.8
2019-03-09T02:13:40.048Z,995.8
2019-03-09T02:14:41.446Z,995.7
2019-03-09T02:15:42.845Z,995.9
2019-03-09T02:16:44.246Z,995.8
2019-03-09T02:17:45.643Z,995.8
2019-03-09T02:18:47.036Z,995.7
2019-03-09T02:19:48.430Z,995.7
2019-03-09T02:20:49.820Z,995.8
2019-03-09T02:21:51.211Z,995.8
2019-03-09T02:22:52.610Z,995.8
2019-03-09T02:23:54.007Z,995.6
2019-03-09T02:24:55.398Z,995.7
2019-03-09T02:25:56.803Z,995.6
2019-03-09T02:26:58.198Z,995.7
2019-03-09T02:27:59.592Z,995.7
2019-03-09T02:29:01.186Z,995.6
2019-03-09T02:30:02.367Z,995.7
2019-03-09T02:31:03.744Z,995.5
2019-03-09T02:32:05.138Z,995.6
2019-03-09T02:33:06.530Z,995.6
2019-03-09T02:34:07.922Z,995.7
2019-03-09T02:35:09.315Z,995.6
2019-03-09T02:36:10.716Z,995.6
2019-03-09T02:37:12.103Z,995.6
2019-03-09T02:38:13.497Z,995.6
2019-03-09T02:39:14.900Z,995.7
2019-03-09T02:40:16.291Z,995.7
2019-03-09T02:41:17.687Z,995.7
2019-03-09T02:42:19.087Z,995.7
2019-03-09T02:43:20.478Z,995.7
2019-03-09T02:44:21.874Z,995.7
2019-03-09T02:45:23.273Z,995.6
2019-03-09T02:46:24.666Z,995.6
2019-03-09T02:47:26.058Z,995.5
2019-03-09T02:48:27.455Z,995.6
2019-03-09T02:49:28.856Z,995.6
2019-03-09T02:50:30.278Z,995.6
2019-03-09T02:51:31.648Z,995.6
2019-03-09T02:52:33.043Z,995.6
2019-03-09T02:53:34.439Z,995.5
2019-03-09T02:54:35.828Z,995.6
2019-03-09T02:55:37.225Z,995.6
2019-03-09T02:56:38.627Z,995.6
2019-03-09T02:57:40.020Z,995.6
2019-03-09T02:58:41.420Z,995.6
2019-03-09T02:59:42.809Z,995.7
2019-03-09T03:00:44.205Z,995.7
2019-03-09T03:01:45.598Z,995.7
2019-03-09T03:02:47.004Z,995.7
2019-03-09T03:03:48.386Z,995.8
2019-03-09T03:04:49.787Z,995.8
2019-03-09T03:05:51.185Z,995.8
2019-03-09T03:06:52.584Z,995.8
2019-03-09T03:07:53.982Z,995.8
2019-03-09T03:08:55.368Z,995.8
2019-03-09T03:09:56.759Z,995.7
2019-03-09T03:10:58.156Z,995.7
2019-03-09T03:11:59.556Z,995.7
2019-03-09T03:13:00.951Z,995.7
2019-03-09T03:14:02.351Z,995.7
2019-03-09T03:15:03.781Z,995.7
2019-03-09T03:16:05.200Z,995.8
2019-03-09T03:17:06.589Z,995.8
2019-03-09T03:18:07.986Z,995.8
2019-03-09T03:19:09.382Z,995.7
2019-03-09T03:20:10.780Z,995.8
2019-03-09T03:21:12.191Z,995.8
2019-03-09T03:22:13.580Z,995.9
2019-03-09T03:23:14.969Z,995.9
2019-03-09T03:24:16.360Z,995.9
2019-03-09T03:25:17.752Z,995.9
2019-03-09T03:26:19.152Z,995.9
2019-03-09T03:27:20.548Z,996.0
2019-03-09T03:28:21.945Z,995.9
2019-03-09T03:29:23.340Z,996.0
2019-03-09T03:30:24.732Z,996.0
2019-03-09T03:31:26.124Z,996.0
2019-03-09T03:32:27.520Z,996.0
2019-03-09T03:33:28.927Z,996.0
2019-03-09T03:34:30.341Z,995.9
2019-03-09T03:35:31.743Z,996.1
2019-03-09T03:36:33.131Z,995.9
2019-03-09T03:37:34.528Z,996.0
2019-03-09T03:38:35.922Z,995.9
2019-03-09T03:39:37.402Z,996.0
2019-03-09T03:40:38.796Z,996.0
2019-03-09T03:41:40.190Z,995.9
2019-03-09T03:42:41.586Z,996.0
2019-03-09T03:43:42.988Z,996.0
2019-03-09T03:44:44.381Z,995.9
2019-03-09T03:45:45.774Z,996.0
2019-03-09T03:46:47.167Z,996.0
2019-03-09T03:47:48.568Z,996.0
2019-03-09T03:48:49.974Z,996.0
2019-03-09T03:49:51.403Z,996.0
2019-03-09T03:50:52.815Z,996.0
2019-03-09T03:51:54.185Z,996.1
2019-03-09T03:52:55.581Z,995.9
2019-03-09T03:53:56.985Z,996.0
2019-03-09T03:54:58.365Z,996.1
2019-03-09T03:55:59.759Z,996.1
2019-03-09T03:57:01.153Z,996.1
2019-03-09T03:58:02.562Z,996.1
2019-03-09T03:59:03.945Z,996.1
2019-03-09T04:00:05.342Z,996.1
2019-03-09T04:01:06.738Z,996.2
2019-03-09T04:02:08.141Z,996.1
2019-03-09T04:03:09.529Z,996.1
2019-03-09T04:04:10.923Z,996.1
2019-03-09T04:05:12.336Z,996.1
2019-03-09T04:06:13.737Z,996.1
2019-03-09T04:07:15.130Z,996.1
2019-03-09T04:08:16.525Z,996.2
2019-03-09T04:09:17.928Z,996.2
2019-03-09T04:10:19.356Z,996.2
2019-03-09T04:11:20.715Z,996.2
2019-03-09T04:12:22.108Z,996.2
2019-03-09T04:13:23.502Z,996.4
2019-03-09T04:14:24.892Z,996.4
2019-03-09T04:15:26.293Z,996.2
2019-03-09T04:16:27.685Z,996.3
2019-03-09T04:17:29.082Z,996.3
2019-03-09T04:18:30.482Z,996.2
2019-03-09T04:19:31.879Z,996.3
2019-03-09T04:20:33.274Z,996.3
2019-03-09T04:21:34.664Z,996.4
2019-03-09T04:22:36.058Z,996.3
2019-03-09T04:23:37.464Z,996.4
2019-03-09T04:24:38.851Z,996.3
2019-03-09T04:25:40.254Z,996.5
2019-03-09T04:26:41.649Z,996.4
2019-03-09T04:27:43.048Z,996.5
2019-03-09T04:28:44.434Z,996.5
2019-03-09T04:29:45.833Z,996.5
2019-03-09T04:30:47.221Z,996.6
2019-03-09T04:31:48.623Z,996.6
2019-03-09T04:32:50.010Z,996.7
2019-03-09T04:33:51.416Z,996.7
2019-03-09T04:34:52.810Z,996.7
2019-03-09T04:35:54.209Z,996.7
2019-03-09T04:36:55.600Z,996.8
2019-03-09T04:37:56.998Z,996.8
2019-03-09T04:38:58.394Z,996.8
2019-03-09T04:39:59.787Z,996.8
2019-03-09T04:41:01.197Z,996.9
2019-03-09T04:42:02.602Z,996.9
2019-03-09T04:43:03.996Z,996.9
2019-03-09T04:44:05.385Z,996.9
2019-03-09T04:45:07.019Z,996.9
2019-03-09T04:46:08.423Z,996.9
2019-03-09T04:47:09.803Z,997.0
2019-03-09T04:48:11.199Z,996.9
2019-03-09T04:49:12.591Z,997.0
2019-03-09T04:50:13.993Z,996.9
2019-03-09T04:51:15.388Z,996.9
2019-03-09T04:52:16.782Z,996.9
2019-03-09T04:53:18.175Z,996.9
2019-03-09T04:54:19.646Z,996.9
2019-03-09T04:55:21.067Z,997.0
2019-03-09T04:56:22.467Z,997.1
2019-03-09T04:57:23.861Z,997.1
2019-03-09T04:58:25.255Z,997.1
2019-03-09T04:59:26.701Z,997.1
2019-03-09T05:00:28.096Z,997.1
2019-03-09T05:01:29.495Z,997.2
2019-03-09T05:02:30.891Z,997.2
2019-03-09T05:03:32.304Z,997.3
2019-03-09T05:04:33.699Z,997.3
2019-03-09T05:05:35.092Z,997.4
2019-03-09T05:06:36.490Z,997.4
2019-03-09T05:07:37.891Z,997.3
2019-03-09T05:08:39.288Z,997.4
2019-03-09T05:09:40.682Z,997.4
2019-03-09T05:10:42.075Z,997.4
2019-03-09T05:11:43.466Z,997.4
2019-03-09T05:12:44.866Z,997.3
2019-03-09T05:13:46.256Z,997.3
2019-03-09T05:14:47.649Z,997.3
2019-03-09T05:15:49.046Z,997.3
2019-03-09T05:16:50.441Z,997.3
2019-03-09T05:17:51.833Z,997.3
2019-03-09T05:18:53.226Z,997.3
2019-03-09T05:19:54.621Z,997.3
2019-03-09T05:20:56.012Z,997.2
2019-03-09T05:21:57.407Z,997.2
2019-03-09T05:22:58.804Z,997.3
2019-03-09T05:24:00.197Z,997.3
2019-03-09T05:25:01.587Z,997.3
2019-03-09T05:26:02.987Z,997.3
2019-03-09T05:27:04.385Z,997.4
2019-03-09T05:28:05.785Z,997.4
2019-03-09T05:29:07.173Z,997.4
2019-03-09T05:30:08.568Z,997.4
2019-03-09T05:31:09.961Z,997.5
2019-03-09T05:32:11.354Z,997.4
2019-03-09T05:33:12.746Z,997.5
2019-03-09T05:34:14.138Z,997.5
2019-03-09T05:35:15.537Z,997.6
2019-03-09T05:36:17.287Z,997.6
2019-03-09T05:37:18.673Z,997.6
2019-03-09T05:38:20.067Z,997.6
2019-03-09T05:39:21.456Z,997.6
2019-03-09T05:40:22.878Z,997.7
2019-03-09T05:41:24.263Z,997.7
2019-03-09T05:42:25.654Z,997.7
2019-03-09T05:43:27.129Z,997.7
2019-03-09T05:44:28.537Z,997.7
2019-03-09T05:45:29.931Z,997.7
2019-03-09T05:46:31.326Z,997.7
2019-03-09T05:47:32.718Z,997.7
2019-03-09T05:48:34.113Z,997.8
2019-03-09T05:49:35.507Z,997.7
2019-03-09T05:50:36.902Z,997.8
2019-03-09T05:51:38.297Z,997.8
2019-03-09T05:52:39.694Z,997.8
2019-03-09T05:53:41.086Z,997.8
2019-03-09T05:54:42.541Z,997.8
2019-03-09T05:55:43.922Z,997.8
2019-03-09T05:56:45.332Z,997.7
2019-03-09T05:57:46.774Z,997.8
2019-03-09T05:58:48.167Z,997.7
2019-03-09T05:59:49.562Z,997.7
2019-03-09T06:00:50.955Z,997.7
2019-03-09T06:01:52.348Z,997.7
2019-03-09T06:02:53.738Z,997.6
2019-03-09T06:03:55.134Z,997.5
2019-03-09T06:04:56.526Z,997.6
2019-03-09T06:05:57.926Z,997.6
2019-03-09T06:06:59.325Z,997.6
2019-03-09T06:08:00.721Z,997.6
2019-03-09T06:09:02.116Z,997.5
2019-03-09T06:10:03.508Z,997.6
2019-03-09T06:11:04.898Z,997.5
2019-03-09T06:12:06.292Z,997.5
2019-03-09T06:13:07.688Z,997.5
2019-03-09T06:14:09.084Z,997.5
2019-03-09T06:15:10.475Z,997.5
2019-03-09T06:16:11.870Z,997.6
2019-03-09T06:17:13.259Z,997.5
2019-03-09T06:18:14.652Z,997.4
2019-03-09T06:19:16.047Z,997.5
2019-03-09T06:20:17.443Z,997.5
2019-03-09T06:21:18.837Z,997.5
2019-03-09T06:22:20.307Z,997.5
2019-03-09T06:23:21.697Z,997.6
2019-03-09T06:24:23.102Z,997.7
2019-03-09T06:25:24.483Z,997.7
2019-03-09T06:26:25.878Z,997.7
2019-03-09T06:27:27.270Z,997.7
2019-03-09T06:28:28.669Z,997.8
2019-03-09T06:29:30.060Z,997.9
2019-03-09T06:30:31.452Z,998.0
2019-03-09T06:31:32.842Z,998.0
2019-03-09T06:32:34.291Z,997.9
2019-03-09T06:33:35.731Z,998.0
2019-03-09T06:34:37.128Z,998.0
2019-03-09T06:35:38.530Z,998.0
2019-03-09T06:36:39.926Z,998.0
2019-03-09T06:37:41.319Z,998.0
2019-03-09T06:38:42.754Z,998.0
2019-03-09T06:39:44.107Z,998.0
2019-03-09T06:40:45.499Z,998.1
2019-03-09T06:41:46.893Z,998.2
2019-03-09T06:42:48.292Z,998.3
2019-03-09T06:43:49.725Z,998.2
2019-03-09T06:44:51.116Z,998.3
2019-03-09T06:45:52.507Z,998.4
2019-03-09T06:46:53.912Z,998.5
2019-03-09T06:47:55.301Z,998.5
2019-03-09T06:48:56.696Z,998.6
2019-03-09T06:49:58.093Z,998.6
2019-03-09T06:50:59.484Z,998.7
2019-03-09T06:52:00.874Z,998.6
2019-03-09T06:53:02.981Z,998.6
2019-03-09T06:54:03.706Z,998.6
2019-03-09T06:55:05.056Z,998.6
2019-03-09T06:56:06.453Z,998.6
2019-03-09T06:57:13.803Z,998.6
2019-03-09T06:58:09.204Z,998.7
2019-03-09T06:59:10.617Z,998.7
2019-03-09T07:00:12.002Z,998.8
2019-03-09T07:01:13.407Z,998.8
2019-03-09T07:02:14.805Z,998.9
2019-03-09T07:03:16.203Z,998.9
2019-03-09T07:04:17.597Z,998.9
2019-03-09T07:05:18.987Z,998.9
2019-03-09T07:06:20.380Z,998.9
2019-03-09T07:07:21.772Z,998.9
2019-03-09T07:08:23.170Z,999.0
2019-03-09T07:09:24.563Z,999.0
2019-03-09T07:10:25.961Z,999.0
2019-03-09T07:11:27.360Z,999.0
2019-03-09T07:12:28.758Z,999.0
2019-03-09T07:13:30.155Z,999.0
2019-03-09T07:14:31.550Z,999.1
2019-03-09T07:15:32.971Z,999.1
2019-03-09T07:16:34.364Z,999.1
2019-03-09T07:17:35.800Z,999.2
2019-03-09T07:18:37.193Z,999.1
2019-03-09T07:19:38.596Z,999.2
2019-03-09T07:20:39.995Z,999.1
2019-03-09T07:21:41.426Z,999.2
2019-03-09T07:22:42.894Z,999.1
2019-03-09T07:23:44.288Z,999.1
2019-03-09T07:24:45.690Z,999.2
2019-03-09T07:25:47.086Z,999.2
2019-03-09T07:26:48.483Z,999.3
2019-03-09T07:27:49.877Z,999.3
2019-03-09T07:28:51.276Z,999.4
2019-03-09T07:29:52.673Z,999.4
2019-03-09T07:30:54.082Z,999.5
2019-03-09T07:31:55.479Z,999.4
2019-03-09T07:32:56.877Z,999.5
2019-03-09T07:33:58.272Z,999.4
2019-03-09T07:34:59.670Z,999.4
2019-03-09T07:36:01.067Z,999.4
2019-03-09T07:37:02.460Z,999.4
2019-03-09T07:38:03.855Z,999.4
2019-03-09T07:39:05.252Z,999.4
2019-03-09T07:40:06.649Z,999.4
2019-03-09T07:41:08.040Z,999.4
2019-03-09T07:42:09.437Z,999.5
2019-03-09T07:43:10.828Z,999.4
2019-03-09T07:44:12.223Z,999.4
2019-03-09T07:45:13.620Z,999.4
2019-03-09T07:46:15.015Z,999.4
2019-03-09T07:47:16.413Z,999.4
2019-03-09T07:48:17.809Z,999.4
2019-03-09T07:49:19.204Z,999.4
2019-03-09T07:50:20.598Z,999.5
2019-03-09T07:51:21.996Z,999.4
2019-03-09T07:52:23.394Z,999.3
2019-03-09T07:53:24.805Z,999.4
2019-03-09T07:54:26.207Z,999.3
2019-03-09T07:55:27.602Z,999.4
2019-03-09T07:56:29.000Z,999.4
2019-03-09T07:57:30.394Z,999.4
2019-03-09T07:58:31.790Z,999.4
2019-03-09T07:59:33.188Z,999.4
2019-03-09T08:00:34.595Z,999.4
2019-03-09T08:01:35.993Z,999.4
2019-03-09T08:02:37.400Z,999.4
2019-03-09T08:03:38.839Z,999.4
2019-03-09T08:04:40.238Z,999.4
2019-03-09T08:05:41.634Z,999.4
2019-03-09T08:06:43.038Z,999.4
2019-03-09T08:07:44.434Z,999.5
2019-03-09T08:08:45.834Z,999.5
2019-03-09T08:09:47.230Z,999.5
2019-03-09T08:10:48.632Z,999.5
2019-03-09T08:11:50.065Z,999.5
2019-03-09T08:12:51.466Z,999.6
2019-03-09T08:13:52.920Z,999.6
2019-03-09T08:14:54.317Z,999.6
2019-03-09T08:15:55.718Z,999.6
2019-03-09T08:16:57.122Z,999.6
2019-03-09T08:17:58.523Z,999.6
2019-03-09T08:18:59.925Z,999.6
2019-03-09T08:20:01.370Z,999.6
2019-03-09T08:21:02.750Z,999.7
2019-03-09T08:22:04.146Z,999.7
2019-03-09T08:23:05.563Z,999.7
2019-03-09T08:24:06.966Z,999.7
2019-03-09T08:25:08.366Z,999.8
2019-03-09T08:26:09.756Z,999.7
2019-03-09T08:27:12.017Z,999.7
2019-03-09T08:28:13.419Z,999.7
2019-03-09T08:29:14.821Z,999.6
2019-03-09T08:30:16.223Z,999.6
2019-03-09T08:31:17.615Z,999.5
2019-03-09T08:32:19.012Z,999.5
2019-03-09T08:33:20.507Z,999.6
2019-03-09T08:34:21.900Z,999.5
2019-03-09T08:35:23.318Z,999.5
2019-03-09T08:36:24.697Z,999.6
2019-03-09T08:37:26.091Z,999.6
2019-03-09T08:38:27.497Z,999.7
2019-03-09T08:39:28.912Z,999.6
2019-03-09T08:40:30.302Z,999.5
2019-03-09T08:41:31.699Z,999.5
2019-03-09T08:42:33.117Z,999.6
2019-03-09T08:43:34.492Z,999.6
2019-03-09T08:44:35.929Z,999.6
2019-03-09T08:45:37.288Z,999.6
2019-03-09T08:46:38.706Z,999.6
2019-03-09T08:47:40.092Z,999.5
2019-03-09T08:48:41.519Z,999.5
2019-03-09T08:49:42.888Z,999.5
2019-03-09T08:50:44.288Z,999.7
2019-03-09T08:51:45.696Z,999.6
2019-03-09T08:52:47.095Z,999.6
2019-03-09T08:53:48.500Z,999.6
2019-03-09T08:54:49.983Z,999.6
2019-03-09T08:55:52.493Z,999.7
2019-03-09T08:56:53.980Z,999.7
2019-03-09T08:57:55.386Z,999.7
2019-03-09T08:58:56.823Z,999.8
2019-03-09T08:59:58.208Z,999.7
2019-03-09T09:00:59.707Z,999.8
2019-03-09T09:02:01.162Z,999.7
2019-03-09T09:03:02.518Z,999.8
2019-03-09T09:04:03.916Z,999.7
2019-03-09T09:05:05.415Z,999.7
2019-03-09T09:06:06.807Z,999.7
2019-03-09T09:07:08.203Z,999.7
2019-03-09T09:08:09.774Z,999.7
2019-03-09T09:09:11.171Z,999.6
2019-03-09T09:10:12.558Z,999.7
2019-03-09T09:11:13.959Z,999.6
2019-03-09T09:12:15.357Z,999.7
2019-03-09T09:13:16.914Z,999.7
2019-03-09T09:14:18.313Z,999.6
2019-03-09T09:15:19.709Z,999.6
2019-03-09T09:16:21.110Z,999.6
2019-03-09T09:17:22.504Z,999.6
2019-03-09T09:18:23.902Z,999.6
2019-03-09T09:19:25.298Z,999.5
2019-03-09T09:20:26.719Z,999.4
2019-03-09T09:21:28.088Z,999.5
2019-03-09T09:22:29.500Z,999.5
2019-03-09T09:23:30.901Z,999.5
2019-03-09T09:24:32.296Z,999.5
2019-03-09T09:25:33.701Z,999.5
2019-03-09T09:26:35.094Z,999.5
2019-03-09T09:27:36.508Z,999.4
2019-03-09T09:28:37.901Z,999.5
2019-03-09T09:29:39.295Z,999.4
2019-03-09T09:30:40.691Z,999.4
2019-03-09T09:31:42.094Z,999.4
2019-03-09T09:32:43.492Z,999.3
2019-03-09T09:33:44.891Z,999.4
2019-03-09T09:34:46.298Z,999.4
2019-03-09T09:35:47.692Z,999.3
2019-03-09T09:36:49.106Z,999.2
2019-03-09T09:37:50.499Z,999.2
2019-03-09T09:38:51.896Z,999.1
2019-03-09T09:39:53.290Z,999.1
2019-03-09T09:40:54.688Z,999.2
2019-03-09T09:41:56.088Z,999.1
2019-03-09T09:42:57.485Z,999.1
2019-03-09T09:43:58.920Z,999.3
2019-03-09T09:58:19.638Z,999.1
2019-03-09T09:59:21.034Z,999.1
2019-03-09T10:00:22.515Z,999.0
2019-03-09T10:01:23.884Z,999.0
2019-03-09T10:02:25.292Z,999.1
2019-03-09T10:03:26.684Z,998.9
2019-03-09T10:04:28.081Z,998.9
2019-03-09T10:05:29.475Z,998.9
2019-03-09T10:06:30.867Z,998.9
2019-03-09T10:07:32.262Z,999.0
2019-03-09T10:08:33.665Z,999.0
2019-03-09T10:09:35.059Z,999.2
2019-03-09T10:10:36.455Z,999.2
2019-03-09T10:11:37.858Z,999.3
2019-03-09T10:12:39.263Z,999.2
2019-03-09T10:13:40.653Z,999.3
2019-03-09T10:14:42.044Z,999.2
2019-03-09T10:15:43.443Z,999.2
2019-03-09T10:16:44.838Z,999.3
2019-03-09T10:17:46.251Z,999.3
2019-03-09T10:18:47.661Z,999.1
2019-03-09T10:19:49.055Z,999.1
2019-03-09T10:20:50.451Z,999.2
2019-03-09T10:21:51.845Z,999.2
2019-03-09T10:23:02.964Z,999.4
2019-03-09T10:23:54.601Z,999.3
2019-03-09T10:24:56.006Z,999.3
2019-03-09T10:25:57.406Z,999.2
2019-03-09T10:26:58.797Z,999.1
2019-03-09T10:28:00.191Z,999.2
2019-03-09T10:29:01.587Z,999.1
2019-03-09T10:30:02.969Z,998.9
2019-03-09T10:31:04.364Z,999.1
2019-03-09T10:32:05.825Z,999.2
2019-03-09T10:33:07.290Z,999.3
2019-03-09T10:34:08.682Z,999.2
2019-03-09T10:35:10.074Z,999.2
2019-03-09T10:36:11.504Z,999.2
2019-03-09T10:37:12.904Z,999.1
2019-03-09T10:38:14.300Z,999.1
2019-03-09T10:39:15.698Z,999.1
2019-03-09T10:40:17.113Z,999.1
2019-03-09T10:41:18.504Z,999.1
2019-03-09T10:42:19.894Z,999.0
2019-03-09T10:43:21.324Z,999.0
2019-03-09T10:44:22.698Z,999.0
2019-03-09T10:45:24.093Z,999.0
2019-03-09T10:46:25.488Z,999.0
2019-03-09T10:47:26.882Z,999.0
2019-03-09T10:48:28.285Z,999.1
2019-03-09T10:49:29.680Z,999.0
2019-03-09T10:50:31.074Z,999.0
2019-03-09T10:51:32.468Z,999.0
2019-03-09T10:52:33.862Z,999.0
2019-03-09T10:53:35.253Z,999.0
2019-03-09T10:54:36.647Z,999.0
2019-03-09T10:55:38.048Z,999.0
2019-03-09T10:56:39.440Z,999.0
2019-03-09T10:57:40.847Z,999.0
2019-03-09T10:58:42.241Z,999.0
2019-03-09T10:59:43.912Z,999.0
2019-03-09T11:00:45.358Z,998.8
2019-03-09T11:01:46.748Z,998.9
2019-03-09T11:02:48.294Z,998.9
2019-03-09T11:03:49.688Z,998.9
2019-03-09T11:04:51.084Z,998.9
2019-03-09T11:05:52.481Z,998.8
2019-03-09T11:06:53.873Z,998.8
2019-03-09T11:07:55.273Z,998.8
2019-03-09T11:08:56.668Z,998.6
2019-03-09T11:09:58.068Z,998.7
2019-03-09T11:10:59.466Z,998.7
2019-03-09T11:12:00.859Z,998.7
2019-03-09T11:13:02.255Z,998.7
2019-03-09T11:14:03.661Z,998.7
2019-03-09T11:15:05.054Z,998.7
2019-03-09T11:16:06.480Z,998.7
2019-03-09T11:17:07.844Z,999.0
2019-03-09T11:18:09.453Z,998.8
2019-03-09T11:19:10.817Z,998.8
2019-03-09T11:20:12.240Z,998.9
2019-03-09T11:21:13.656Z,998.8
2019-03-09T11:22:15.054Z,998.9
2019-03-09T11:23:16.448Z,998.9
2019-03-09T11:24:17.843Z,999.0
2019-03-09T11:25:19.234Z,998.9
2019-03-09T11:26:20.624Z,999.0
2019-03-09T11:27:22.019Z,998.9
2019-03-09T11:28:23.411Z,999.0
2019-03-09T11:29:24.819Z,998.8
2019-03-09T11:30:26.222Z,998.8
2019-03-09T11:31:27.622Z,998.9
2019-03-09T11:32:29.012Z,998.7
2019-03-09T11:33:30.413Z,998.8
2019-03-09T11:34:31.805Z,998.7
2019-03-09T11:35:33.202Z,998.7
2019-03-09T11:36:34.595Z,998.6
2019-03-09T11:37:36.009Z,998.6
2019-03-09T11:38:37.399Z,998.6
2019-03-09T11:39:38.792Z,998.6
2019-03-09T11:40:40.187Z,998.6
2019-03-09T11:41:41.587Z,998.5
2019-03-09T11:42:43.018Z,998.3
2019-03-09T11:43:44.416Z,998.4
2019-03-09T11:44:45.845Z,998.3
2019-03-09T11:45:47.244Z,998.4
2019-03-09T11:46:48.638Z,998.1
2019-03-09T11:47:50.041Z,998.0
2019-03-09T11:48:51.428Z,998.0
2019-03-09T11:49:52.823Z,997.9
2019-03-09T11:50:54.219Z,997.8
2019-03-09T11:51:55.620Z,997.6
2019-03-09T11:52:57.030Z,997.5
2019-03-09T11:53:58.419Z,997.5
2019-03-09T11:54:59.900Z,997.3
2019-03-09T11:56:01.299Z,997.5
2019-03-09T11:57:02.717Z,997.5
2019-03-09T11:58:04.152Z,997.6
2019-03-09T11:59:05.558Z,997.8
2019-03-09T12:00:06.973Z,997.8
2019-03-09T12:01:08.432Z,997.6
2019-03-09T12:02:09.837Z,997.7
2019-03-09T12:03:11.234Z,997.9
2019-03-09T12:04:12.630Z,997.6
2019-03-09T12:05:14.027Z,997.7
2019-03-09T12:06:15.541Z,997.6
2019-03-09T12:07:16.939Z,997.5
2019-03-09T12:08:18.431Z,997.5
2019-03-09T12:09:19.868Z,997.6
2019-03-09T12:10:21.265Z,997.5
2019-03-09T12:11:22.680Z,997.6
2019-03-09T12:12:24.071Z,997.5
2019-03-09T12:13:25.467Z,997.5
2019-03-09T12:14:26.905Z,997.6
2019-03-09T12:15:28.291Z,997.6
2019-03-09T12:16:29.687Z,997.5
2019-03-09T12:17:31.081Z,997.6
2019-03-09T12:18:32.477Z,997.5
2019-03-09T12:19:33.875Z,997.5
2019-03-09T12:20:35.281Z,997.6
2019-03-09T12:21:36.674Z,997.8
2019-03-09T12:22:38.075Z,997.5
2019-03-09T12:23:39.472Z,997.5
2019-03-09T12:24:40.867Z,997.4
2019-03-09T12:25:42.264Z,997.5
2019-03-09T12:26:43.675Z,997.4
2019-03-09T12:27:45.077Z,997.3
2019-03-09T12:28:46.488Z,997.0
2019-03-09T12:29:47.942Z,997.1
2019-03-09T12:30:49.338Z,997.2
2019-03-09T12:31:50.755Z,996.9
2019-03-09T12:32:52.149Z,997.0
2019-03-09T12:33:53.552Z,997.1
2019-03-09T12:34:54.949Z,997.3
2019-03-09T12:35:56.342Z,997.1
2019-03-09T12:36:57.737Z,997.0
2019-03-09T12:37:59.136Z,996.8
2019-03-09T12:39:00.532Z,996.8
2019-03-09T12:40:01.924Z,996.9
2019-03-09T12:41:03.323Z,996.8
2019-03-09T12:42:04.715Z,997.0
2019-03-09T12:43:06.111Z,996.7
2019-03-09T12:44:07.512Z,996.9
2019-03-09T12:45:08.909Z,997.2
2019-03-09T12:46:10.303Z,996.8
2019-03-09T12:47:11.709Z,996.8
2019-03-09T12:48:13.102Z,996.8
2019-03-09T12:49:14.505Z,996.6
2019-03-09T12:50:15.902Z,996.8
2019-03-09T12:51:17.296Z,996.7
2019-03-09T12:52:18.701Z,996.9
2019-03-09T12:53:20.098Z,996.9
2019-03-09T12:54:21.495Z,996.9
2019-03-09T12:55:22.930Z,996.8
2019-03-09T12:56:24.335Z,996.8
2019-03-09T12:57:25.804Z,996.9
2019-03-09T12:58:27.204Z,996.9
2019-03-09T12:59:28.611Z,996.7
2019-03-09T13:00:30.015Z,997.1
2019-03-09T13:01:31.415Z,996.9
2019-03-09T13:02:32.810Z,996.8
2019-03-09T13:03:34.214Z,996.7
2019-03-09T13:04:35.613Z,996.8
2019-03-09T13:05:37.006Z,996.7
2019-03-09T13:06:38.410Z,996.7
2019-03-09T13:07:39.816Z,996.8
2019-03-09T13:08:41.213Z,996.9
2019-03-09T13:09:42.618Z,996.9
2019-03-09T13:10:44.021Z,997.1
2019-03-09T13:11:45.418Z,997.0
2019-03-09T13:12:46.811Z,997.5
2019-03-09T13:13:48.206Z,996.8
2019-03-09T13:14:49.604Z,997.0
2019-03-09T13:15:51.001Z,996.9
2019-03-09T13:16:52.393Z,996.9
2019-03-09T13:17:53.788Z,997.1
2019-03-09T13:18:55.181Z,997.2
2019-03-09T13:19:56.603Z,997.1
2019-03-09T13:20:58.009Z,997.2
2019-03-09T13:21:59.400Z,997.2
2019-03-09T13:23:01.232Z,997.1
2019-03-09T13:24:02.648Z,996.8